Time;durP1;ratioP1;P1;durP2;ratioP2;P2;SDS_P1;SDS_P2;PMS_P1;PMS_P2;Temp;Humidity;BMP_temperature;BMP_pressure;BME280_temperature;BME280_humidity;BME280_pressure;Samples;Min_cycle;Max_cycle;Signal;HPM_P1;HPM_P2
2023/10/26 00:01:11;;;;;;;12.57;9.03;;;;;;;;;;762747;184;921392;-65
2023/10/26 00:03:37;;;;;;;12.47;8.13;;;;;;;;;;765109;182;918305;-64
2023/10/26 00:06:03;;;;;;;11.83;8.97;;;;;;;;;;752547;184;919555;-65
2023/10/26 00:08:29;;;;;;;14.43;9.27;;;;;;;;;;776187;181;864363;-66
2023/10/26 00:10:55;;;;;;;13.13;8.53;;;;;;;;;;768880;182;812900;-65
2023/10/26 00:13:20;;;;;;;12.50;8.18;;;;;;;;;;766971;179;917716;-66
2023/10/26 00:15:46;;;;;;;11.17;8.50;;;;;;;;;;767990;181;918438;-66
2023/10/26 00:18:13;;;;;;;9.00;7.60;;;;;;;;;;766039;183;919014;-66
2023/10/26 00:20:38;;;;;;;11.47;7.67;;;;;;;;;;750434;185;918557;-66
2023/10/26 00:23:04;;;;;;;11.70;7.73;;;;;;;;;;759604;184;919080;-65
2023/10/26 00:25:30;;;;;;;11.77;7.80;;;;;;;;;;768024;183;918666;-65
2023/10/26 00:27:55;;;;;;;9.87;8.43;;;;;;;;;;760599;183;918353;-64
2023/10/26 00:30:21;;;;;;;11.20;7.90;;;;;;;;;;764561;182;914711;-64
2023/10/26 00:32:47;;;;;;;11.90;7.80;;;;;;;;;;751432;184;817296;-66
2023/10/26 00:35:13;;;;;;;14.30;8.10;;;;;;;;;;751509;184;874738;-66
2023/10/26 00:37:39;;;;;;;10.67;7.10;;;;;;;;;;755467;182;919493;-65
2023/10/26 00:40:05;;;;;;;13.67;8.27;;;;;;;;;;752620;186;919604;-66
2023/10/26 00:42:31;;;;;;;18.93;9.73;;;;;;;;;;766490;181;919044;-65
2023/10/26 00:44:57;;;;;;;10.03;7.67;;;;;;;;;;769464;180;918648;-64
2023/10/26 00:47:24;;;;;;;10.10;7.53;;;;;;;;;;756710;184;919073;-67
2023/10/26 00:49:49;;;;;;;12.67;7.57;;;;;;;;;;765038;183;809515;-66
2023/10/26 00:52:14;;;;;;;8.53;6.37;;;;;;;;;;759408;183;918925;-66
2023/10/26 00:54:40;;;;;;;13.70;8.02;;;;;;;;;;749174;185;919275;-65
2023/10/26 00:57:06;;;;;;;9.67;7.03;;;;;;;;;;772821;182;816531;-66
2023/10/26 00:59:32;;;;;;;10.93;8.00;;;;;;;;;;768757;182;919084;-67
2023/10/26 01:01:58;;;;;;;10.70;7.03;;;;;;;;;;764689;182;918864;-66
2023/10/26 01:04:24;;;;;;;9.80;7.40;;;;;;;;;;767774;182;919054;-66
2023/10/26 01:06:49;;;;;;;11.43;7.37;;;;;;;;;;768127;182;940441;-66
2023/10/26 01:09:15;;;;;;;10.33;6.60;;;;;;;;;;767172;180;916207;-66
2023/10/26 01:11:42;;;;;;;8.40;6.55;;;;;;;;;;766299;182;922777;-66
2023/10/26 01:14:08;;;;;;;9.87;6.80;;;;;;;;;;774279;181;915284;-65
2023/10/26 01:16:33;;;;;;;9.27;6.67;;;;;;;;;;759293;182;921844;-65
2023/10/26 01:18:59;;;;;;;7.87;6.23;;;;;;;;;;765567;180;813601;-66
2023/10/26 01:21:25;;;;;;;9.87;6.57;;;;;;;;;;773786;180;817420;-64
2023/10/26 01:23:51;;;;;;;7.83;5.63;;;;;;;;;;767862;180;817301;-67
2023/10/26 01:26:17;;;;;;;12.43;5.80;;;;;;;;;;768525;182;816534;-66
2023/10/26 01:28:43;;;;;;;14.30;5.87;;;;;;;;;;773727;182;921140;-66
2023/10/26 01:31:08;;;;;;;159.40;15.40;;;;;;;;;;767337;182;919982;-66
2023/10/26 01:33:34;;;;;;;29.48;7.35;;;;;;;;;;767513;180;923023;-66
2023/10/26 01:36:00;;;;;;;18.80;6.80;;;;;;;;;;772588;182;920217;-65
2023/10/26 01:38:26;;;;;;;9.10;7.17;;;;;;;;;;759712;181;919701;-67
2023/10/26 01:40:52;;;;;;;7.40;5.87;;;;;;;;;;763470;183;918864;-66
2023/10/26 01:43:18;;;;;;;7.70;5.23;;;;;;;;;;765518;182;919119;-66
2023/10/26 01:45:44;;;;;;;7.70;5.93;;;;;;;;;;765293;183;920547;-65
2023/10/26 01:48:09;;;;;;;7.03;5.53;;;;;;;;;;766675;183;919285;-66
2023/10/26 01:50:35;;;;;;;7.67;5.00;;;;;;;;;;763029;183;815355;-65
2023/10/26 01:53:01;;;;;;;7.83;5.40;;;;;;;;;;769028;181;901454;-66
2023/10/26 01:55:27;;;;;;;7.17;4.93;;;;;;;;;;758734;180;919195;-65
2023/10/26 01:57:53;;;;;;;20.83;5.67;;;;;;;;;;760688;180;851859;-66
2023/10/26 02:00:18;;;;;;;7.37;5.80;;;;;;;;;;774705;180;817158;-66
2023/10/26 02:02:46;;;;;;;7.53;5.30;;;;;;;;;;770767;180;918508;-65
2023/10/26 02:05:10;;;;;;;7.13;4.93;;;;;;;;;;766975;180;897282;-65
2023/10/26 02:07:36;;;;;;;13.40;5.40;;;;;;;;;;771172;180;914732;-66
2023/10/26 02:10:02;;;;;;;7.73;5.87;;;;;;;;;;771752;183;916416;-66
2023/10/26 02:12:28;;;;;;;9.53;5.63;;;;;;;;;;768438;182;916091;-66
2023/10/26 02:14:54;;;;;;;8.70;5.63;;;;;;;;;;768907;182;935558;-63
2023/10/26 02:17:20;;;;;;;8.90;5.37;;;;;;;;;;773311;180;921110;-68
2023/10/26 02:19:46;;;;;;;7.40;5.43;;;;;;;;;;768195;181;918558;-66
2023/10/26 02:22:13;;;;;;;9.87;6.10;;;;;;;;;;771529;182;826819;-66
2023/10/26 02:24:37;;;;;;;6.70;5.47;;;;;;;;;;772680;183;918254;-66
2023/10/26 02:27:03;;;;;;;8.30;5.50;;;;;;;;;;765305;180;919158;-65
2023/10/26 02:29:29;;;;;;;7.80;5.00;;;;;;;;;;769024;180;818328;-66
2023/10/26 02:31:55;;;;;;;7.53;5.60;;;;;;;;;;773409;180;906524;-67
2023/10/26 02:34:21;;;;;;;8.40;5.57;;;;;;;;;;757188;183;918108;-66
2023/10/26 02:36:47;;;;;;;8.73;6.80;;;;;;;;;;764900;182;816922;-67
2023/10/26 02:39:13;;;;;;;8.67;5.40;;;;;;;;;;766247;181;919061;-67
2023/10/26 02:41:38;;;;;;;8.87;5.67;;;;;;;;;;771868;180;920161;-67
2023/10/26 02:44:04;;;;;;;9.77;5.70;;;;;;;;;;765839;180;921105;-67
2023/10/26 02:46:30;;;;;;;9.40;4.73;;;;;;;;;;762176;180;920764;-69
2023/10/26 02:48:57;;;;;;;18.83;5.87;;;;;;;;;;771295;182;812599;-67
2023/10/26 02:51:22;;;;;;;9.68;5.65;;;;;;;;;;766753;180;918773;-67
2023/10/26 02:53:48;;;;;;;7.93;5.90;;;;;;;;;;763839;180;917701;-67
2023/10/26 02:56:13;;;;;;;9.20;6.82;;;;;;;;;;771389;180;916364;-68
2023/10/26 02:58:39;;;;;;;11.00;6.70;;;;;;;;;;767168;182;812747;-68
2023/10/26 03:01:05;;;;;;;9.20;5.37;;;;;;;;;;766378;180;919397;-67
2023/10/26 03:03:31;;;;;;;9.30;6.63;;;;;;;;;;765384;180;918665;-69
2023/10/26 03:05:58;;;;;;;8.73;6.47;;;;;;;;;;770663;181;819597;-68
2023/10/26 03:08:24;;;;;;;8.73;6.77;;;;;;;;;;754397;180;922626;-70
2023/10/26 03:10:49;;;;;;;8.00;6.00;;;;;;;;;;748642;182;919124;-68
2023/10/26 03:13:15;;;;;;;11.87;7.37;;;;;;;;;;747973;185;816114;-67
2023/10/26 03:15:41;;;;;;;10.70;7.60;;;;;;;;;;774707;179;920695;-69
2023/10/26 03:18:07;;;;;;;13.23;7.20;;;;;;;;;;769167;180;918054;-69
2023/10/26 03:20:33;;;;;;;10.60;6.27;;;;;;;;;;775652;180;815627;-68
2023/10/26 03:22:59;;;;;;;14.20;7.67;;;;;;;;;;756299;184;919817;-67
2023/10/26 03:25:24;;;;;;;7.77;5.83;;;;;;;;;;757274;185;919939;-68
2023/10/26 03:27:50;;;;;;;8.90;6.83;;;;;;;;;;759173;185;921294;-67
2023/10/26 03:30:17;;;;;;;12.37;6.83;;;;;;;;;;750730;186;816728;-67
2023/10/26 03:32:43;;;;;;;8.50;5.53;;;;;;;;;;754770;183;918802;-67
2023/10/26 03:35:08;;;;;;;10.20;6.80;;;;;;;;;;742001;187;919179;-67
2023/10/26 03:37:34;;;;;;;13.40;7.30;;;;;;;;;;759835;183;816903;-67
2023/10/26 03:40:00;;;;;;;6.93;5.70;;;;;;;;;;761184;182;918201;-68
2023/10/26 03:42:26;;;;;;;7.23;5.43;;;;;;;;;;763813;182;919099;-68
2023/10/26 03:44:51;;;;;;;6.27;4.77;;;;;;;;;;768664;182;920038;-68
2023/10/26 03:47:18;;;;;;;7.03;5.57;;;;;;;;;;768777;182;918449;-67
2023/10/26 03:49:43;;;;;;;7.57;5.00;;;;;;;;;;765140;181;932275;-68
2023/10/26 03:52:09;;;;;;;7.03;4.57;;;;;;;;;;773230;180;812883;-68
2023/10/26 03:54:35;;;;;;;6.53;5.00;;;;;;;;;;766819;182;919066;-70
2023/10/26 03:57:01;;;;;;;10.32;5.65;;;;;;;;;;764727;183;921399;-67
2023/10/26 03:59:27;;;;;;;9.27;6.23;;;;;;;;;;766089;180;921420;-67
2023/10/26 04:01:52;;;;;;;9.13;7.10;;;;;;;;;;768352;180;882525;-69
2023/10/26 04:04:18;;;;;;;20.37;6.90;;;;;;;;;;770046;181;817616;-68
2023/10/26 04:06:45;;;;;;;8.27;6.37;;;;;;;;;;774106;180;628268;-68
2023/10/26 04:09:10;;;;;;;9.37;6.70;;;;;;;;;;776969;180;634247;-68
2023/10/26 04:11:36;;;;;;;10.23;6.90;;;;;;;;;;772035;182;622934;-68
2023/10/26 04:14:03;;;;;;;10.55;6.68;;;;;;;;;;772754;180;1006132;-73
2023/10/26 04:16:29;;;;;;;8.30;6.97;;;;;;;;;;776510;179;614403;-69
2023/10/26 04:18:53;;;;;;;10.27;7.50;;;;;;;;;;767048;181;919815;-68
2023/10/26 04:21:19;;;;;;;7.63;6.20;;;;;;;;;;761519;183;918326;-68
2023/10/26 04:23:45;;;;;;;7.20;5.40;;;;;;;;;;764449;184;818012;-68
2023/10/26 04:26:12;;;;;;;7.30;5.57;;;;;;;;;;752582;186;913900;-67
2023/10/26 04:28:37;;;;;;;11.47;6.20;;;;;;;;;;773420;182;919271;-68
2023/10/26 04:31:04;;;;;;;7.80;5.90;;;;;;;;;;757340;182;923026;-67
2023/10/26 04:33:29;;;;;;;6.50;5.40;;;;;;;;;;773411;181;918128;-67
2023/10/26 04:35:54;;;;;;;9.10;6.23;;;;;;;;;;773284;181;919212;-67
2023/10/26 04:38:20;;;;;;;13.33;6.47;;;;;;;;;;775607;178;898560;-67
2023/10/26 04:40:46;;;;;;;7.73;5.23;;;;;;;;;;759896;185;918472;-67
2023/10/26 04:43:12;;;;;;;7.37;3.87;;;;;;;;;;751088;183;900443;-67
2023/10/26 04:45:38;;;;;;;5.72;3.78;;;;;;;;;;755041;184;928508;-68
2023/10/26 04:48:04;;;;;;;5.73;3.93;;;;;;;;;;759437;185;815355;-67
2023/10/26 04:50:30;;;;;;;6.20;4.43;;;;;;;;;;750249;185;923247;-68
2023/10/26 04:52:56;;;;;;;7.70;4.40;;;;;;;;;;762594;182;919579;-66
2023/10/26 04:55:22;;;;;;;7.50;5.07;;;;;;;;;;759500;183;816131;-69
2023/10/26 04:57:48;;;;;;;9.27;4.30;;;;;;;;;;759512;183;816143;-68
2023/10/26 05:00:14;;;;;;;5.57;3.40;;;;;;;;;;762512;183;918888;-68
2023/10/26 05:02:40;;;;;;;6.83;3.90;;;;;;;;;;761396;183;919842;-67
2023/10/26 05:05:07;;;;;;;5.40;3.43;;;;;;;;;;772105;183;911832;-68
2023/10/26 05:07:32;;;;;;;9.40;3.60;;;;;;;;;;764727;183;915725;-68
2023/10/26 05:09:58;;;;;;;9.98;3.78;;;;;;;;;;764948;183;918503;-68
2023/10/26 05:12:24;;;;;;;5.53;2.87;;;;;;;;;;769134;183;915559;-68
2023/10/26 05:14:49;;;;;;;5.80;3.30;;;;;;;;;;738673;189;919349;-68
2023/10/26 05:17:15;;;;;;;6.27;3.57;;;;;;;;;;753903;182;918539;-68
2023/10/26 05:19:41;;;;;;;7.07;3.70;;;;;;;;;;769960;179;919724;-69
2023/10/26 05:22:07;;;;;;;6.93;3.93;;;;;;;;;;763185;181;919211;-68
2023/10/26 05:24:33;;;;;;;8.50;4.03;;;;;;;;;;764026;181;816246;-68
2023/10/26 05:26:59;;;;;;;6.20;4.47;;;;;;;;;;762585;183;920207;-67
2023/10/26 05:29:24;;;;;;;8.67;3.70;;;;;;;;;;755598;185;918165;-68
2023/10/26 05:31:50;;;;;;;5.20;3.53;;;;;;;;;;765748;180;924148;-67
2023/10/26 05:34:16;;;;;;;8.40;4.47;;;;;;;;;;755389;185;920454;-68
2023/10/26 05:36:42;;;;;;;5.53;3.63;;;;;;;;;;758857;184;919232;-68
2023/10/26 05:39:08;;;;;;;5.40;3.33;;;;;;;;;;770055;179;919463;-68
2023/10/26 05:41:34;;;;;;;5.40;3.93;;;;;;;;;;771502;180;824698;-68
2023/10/26 05:43:59;;;;;;;4.00;3.20;;;;;;;;;;773149;180;918675;-68
2023/10/26 05:46:25;;;;;;;6.50;3.67;;;;;;;;;;770028;180;920689;-67
2023/10/26 05:48:51;;;;;;;4.73;3.73;;;;;;;;;;769002;180;919022;-68
2023/10/26 05:51:17;;;;;;;5.83;4.13;;;;;;;;;;771595;180;918496;-68
2023/10/26 05:53:43;;;;;;;4.50;3.40;;;;;;;;;;751470;184;919404;-67
2023/10/26 05:56:10;;;;;;;6.47;4.20;;;;;;;;;;768385;181;919078;-67
2023/10/26 05:58:34;;;;;;;5.80;4.30;;;;;;;;;;764324;181;929464;-68
2023/10/26 06:01:00;;;;;;;6.23;3.50;;;;;;;;;;773717;180;902213;-68
2023/10/26 06:03:26;;;;;;;6.72;3.35;;;;;;;;;;767812;180;911701;-67
2023/10/26 06:05:52;;;;;;;6.10;3.47;;;;;;;;;;765933;181;919087;-68
2023/10/26 06:08:18;;;;;;;6.30;3.80;;;;;;;;;;775109;180;908724;-68
2023/10/26 06:10:44;;;;;;;8.90;3.80;;;;;;;;;;770248;180;922137;-66
2023/10/26 06:13:10;;;;;;;8.73;4.30;;;;;;;;;;769409;181;819239;-67
2023/10/26 06:15:36;;;;;;;6.40;4.20;;;;;;;;;;772314;181;919788;-67
2023/10/26 06:18:01;;;;;;;6.27;3.97;;;;;;;;;;773533;180;912573;-66
2023/10/26 06:20:28;;;;;;;7.10;4.47;;;;;;;;;;754521;184;913226;-67
2023/10/26 06:22:54;;;;;;;8.83;3.73;;;;;;;;;;747604;185;920867;-67
2023/10/26 06:25:20;;;;;;;5.13;3.53;;;;;;;;;;774476;181;920048;-65
2023/10/26 06:27:45;;;;;;;13.90;4.13;;;;;;;;;;766760;181;1120252;-67
2023/10/26 06:30:12;;;;;;;8.93;4.00;;;;;;;;;;773936;179;1012583;-66
2023/10/26 06:32:37;;;;;;;5.80;4.00;;;;;;;;;;752125;184;920804;-66
2023/10/26 06:35:03;;;;;;;5.93;3.90;;;;;;;;;;747416;185;920333;-67
2023/10/26 06:37:29;;;;;;;6.87;4.77;;;;;;;;;;747661;185;921498;-67
2023/10/26 06:39:55;;;;;;;6.17;4.03;;;;;;;;;;773725;181;920012;-67
2023/10/26 06:42:21;;;;;;;6.67;4.93;;;;;;;;;;769403;181;917785;-65
2023/10/26 06:44:47;;;;;;;7.27;4.67;;;;;;;;;;768538;181;918924;-66
2023/10/26 06:47:13;;;;;;;17.13;5.80;;;;;;;;;;768598;180;919017;-68
2023/10/26 06:49:41;;;;;;;7.50;6.03;;;;;;;;;;775421;180;916662;-66
2023/10/26 06:52:04;;;;;;;9.07;6.60;;;;;;;;;;761310;180;919611;-66
2023/10/26 06:54:30;;;;;;;8.47;5.23;;;;;;;;;;770323;180;917955;-67
2023/10/26 06:56:56;;;;;;;8.73;5.43;;;;;;;;;;773601;181;905312;-69
2023/10/26 06:59:22;;;;;;;8.77;5.55;;;;;;;;;;768013;180;920472;-67
2023/10/26 07:01:48;;;;;;;10.83;5.43;;;;;;;;;;768241;180;1021876;-68
2023/10/26 07:04:14;;;;;;;8.48;5.15;;;;;;;;;;776490;180;920475;-67
2023/10/26 07:06:40;;;;;;;9.17;5.60;;;;;;;;;;752087;184;818503;-67
2023/10/26 07:09:06;;;;;;;8.63;5.30;;;;;;;;;;763358;182;919090;-69
2023/10/26 07:11:31;;;;;;;6.70;4.33;;;;;;;;;;749119;185;905243;-66
2023/10/26 07:13:57;;;;;;;10.90;5.23;;;;;;;;;;748813;186;941040;-65
2023/10/26 07:16:24;;;;;;;8.57;6.07;;;;;;;;;;752734;185;816709;-65
2023/10/26 07:18:49;;;;;;;8.13;4.67;;;;;;;;;;761220;183;917401;-68
2023/10/26 07:21:15;;;;;;;7.87;4.53;;;;;;;;;;766611;183;919063;-66
2023/10/26 07:23:40;;;;;;;8.10;5.07;;;;;;;;;;742230;187;919574;-65
2023/10/26 07:26:06;;;;;;;5.95;3.90;;;;;;;;;;765688;183;919344;-68
2023/10/26 07:28:32;;;;;;;5.27;3.80;;;;;;;;;;769756;183;918255;-69
2023/10/26 07:30:58;;;;;;;6.50;4.60;;;;;;;;;;760989;182;920855;-65
2023/10/26 07:33:24;;;;;;;7.63;3.87;;;;;;;;;;766934;182;914912;-66
2023/10/26 07:35:53;;;;;;;5.67;4.00;;;;;;;;;;770566;183;630216;-66
2023/10/26 07:38:18;;;;;;;5.53;4.10;;;;;;;;;;748723;184;627175;-66
2023/10/26 07:40:48;;;;;;;5.83;4.10;;;;;;;;;;765261;183;623294;-70
2023/10/26 07:43:14;;;;;;;6.10;4.03;;;;;;;;;;751290;182;845204;-66
2023/10/26 07:45:40;;;;;;;9.47;4.30;;;;;;;;;;761583;183;856947;-69
2023/10/26 07:48:06;;;;;;;8.43;3.00;;;;;;;;;;760927;182;899951;-65
2023/10/26 07:50:31;;;;;;;4.43;3.07;;;;;;;;;;754207;184;625009;-65
2023/10/26 07:52:57;;;;;;;4.23;2.80;;;;;;;;;;773522;181;919009;-64
2023/10/26 07:55:23;;;;;;;4.57;2.77;;;;;;;;;;763215;183;921312;-68
2023/10/26 07:57:49;;;;;;;6.03;3.37;;;;;;;;;;773925;182;630264;-69
2023/10/26 08:00:15;;;;;;;5.63;2.50;;;;;;;;;;770846;180;919683;-65
2023/10/26 08:02:41;;;;;;;5.13;3.00;;;;;;;;;;761619;180;919889;-64
2023/10/26 08:05:07;;;;;;;7.70;2.40;;;;;;;;;;760181;179;923439;-65
2023/10/26 08:07:33;;;;;;;5.10;2.93;;;;;;;;;;753128;183;920573;-65
2023/10/26 08:09:59;;;;;;;4.03;2.80;;;;;;;;;;759262;184;916734;-68
2023/10/26 08:12:25;;;;;;;4.17;2.67;;;;;;;;;;769025;180;921458;-70
2023/10/26 08:14:50;;;;;;;4.73;2.97;;;;;;;;;;768082;180;920665;-64
2023/10/26 08:17:16;;;;;;;7.93;2.77;;;;;;;;;;774281;180;813350;-65
2023/10/26 08:19:42;;;;;;;4.60;2.40;;;;;;;;;;768831;180;815670;-64
2023/10/26 08:22:10;;;;;;;4.37;2.70;;;;;;;;;;766762;180;918136;-65
2023/10/26 08:24:34;;;;;;;4.77;3.00;;;;;;;;;;754233;182;912015;-69
2023/10/26 08:27:00;;;;;;;4.93;2.97;;;;;;;;;;770441;180;917122;-69
2023/10/26 08:29:26;;;;;;;4.33;2.60;;;;;;;;;;759328;183;982016;-69
2023/10/26 08:31:51;;;;;;;4.80;2.90;;;;;;;;;;769318;182;919267;-65
2023/10/26 08:34:17;;;;;;;5.87;3.43;;;;;;;;;;765197;181;915098;-64
2023/10/26 08:36:44;;;;;;;4.70;2.60;;;;;;;;;;767908;181;920868;-65
2023/10/26 08:39:09;;;;;;;7.03;2.77;;;;;;;;;;767827;180;915417;-69
2023/10/26 08:41:35;;;;;;;4.23;2.77;;;;;;;;;;760824;184;918772;-69
2023/10/26 08:44:00;;;;;;;5.70;3.70;;;;;;;;;;755941;185;919417;-69
2023/10/26 08:46:27;;;;;;;4.63;2.73;;;;;;;;;;753573;184;913891;-64
2023/10/26 08:48:52;;;;;;;4.27;2.70;;;;;;;;;;761425;185;816428;-69
2023/10/26 08:51:18;;;;;;;4.30;2.77;;;;;;;;;;756124;185;915263;-64
2023/10/26 08:53:44;;;;;;;3.50;2.70;;;;;;;;;;755499;185;919034;-64
2023/10/26 08:56:11;;;;;;;6.13;3.53;;;;;;;;;;755358;184;922610;-64
2023/10/26 08:58:36;;;;;;;3.83;2.87;;;;;;;;;;746704;186;918679;-69
2023/10/26 09:01:04;;;;;;;5.30;2.87;;;;;;;;;;764648;183;918913;-64
2023/10/26 09:03:27;;;;;;;4.57;3.00;;;;;;;;;;765174;181;918955;-69
2023/10/26 09:05:53;;;;;;;3.97;2.70;;;;;;;;;;769508;182;919292;-64
2023/10/26 09:08:19;;;;;;;4.20;2.80;;;;;;;;;;764854;183;917983;-64
2023/10/26 09:10:45;;;;;;;3.90;3.10;;;;;;;;;;764436;182;919158;-65
2023/10/26 09:13:11;;;;;;;7.13;3.17;;;;;;;;;;767673;182;914362;-69
2023/10/26 09:15:43;;;;;;;3.57;2.47;;;;;;;;;;766558;182;917206;-65
2023/10/26 09:18:09;;;;;;;4.10;2.80;;;;;;;;;;768024;180;917717;-69
2023/10/26 09:20:34;;;;;;;4.67;2.60;;;;;;;;;;772219;180;919066;-64
2023/10/26 09:23:00;;;;;;;3.13;2.17;;;;;;;;;;776759;181;632586;-65
2023/10/26 09:25:26;;;;;;;4.60;2.50;;;;;;;;;;769916;180;885352;-69
2023/10/26 09:27:52;;;;;;;3.60;2.50;;;;;;;;;;770539;180;925879;-68
2023/10/26 09:30:25;;;;;;;5.70;3.17;;;;;;;;;;774218;180;874853;-64
2023/10/26 09:32:51;;;;;;;7.60;2.30;;;;;;;;;;770060;181;920957;-69
2023/10/26 09:35:22;;;;;;;5.87;2.93;;;;;;;;;;770830;181;918257;-69
2023/10/26 09:37:50;;;;;;;5.20;2.97;;;;;;;;;;753529;185;918654;-64
2023/10/26 09:40:15;;;;;;;5.80;2.57;;;;;;;;;;749023;183;816443;-68
2023/10/26 09:42:41;;;;;;;4.83;2.80;;;;;;;;;;763204;180;920634;-69
2023/10/26 09:45:07;;;;;;;8.07;2.80;;;;;;;;;;754859;185;919361;-68
2023/10/26 09:47:33;;;;;;;7.95;2.90;;;;;;;;;;756874;184;928334;-69
2023/10/26 09:49:59;;;;;;;6.50;2.97;;;;;;;;;;769026;182;941115;-69
2023/10/26 09:52:25;;;;;;;4.67;3.20;;;;;;;;;;757960;181;904533;-65
2023/10/26 09:54:51;;;;;;;3.57;2.70;;;;;;;;;;765065;180;919066;-65
2023/10/26 09:57:17;;;;;;;4.43;2.67;;;;;;;;;;769275;180;918978;-69
2023/10/26 09:59:43;;;;;;;6.77;3.27;;;;;;;;;;748437;187;919647;-64
2023/10/26 10:02:12;;;;;;;4.40;2.80;;;;;;;;;;754214;185;919989;-68
2023/10/26 10:04:38;;;;;;;7.13;2.83;;;;;;;;;;759710;184;919113;-69
2023/10/26 10:07:04;;;;;;;4.80;3.10;;;;;;;;;;753708;185;919453;-66
2023/10/26 10:09:30;;;;;;;11.73;3.30;;;;;;;;;;753911;184;918927;-65
2023/10/26 10:12:01;;;;;;;5.10;3.13;;;;;;;;;;747504;185;918564;-69
2023/10/26 10:14:45;;;;;;;7.83;4.93;;;;;;;;;;752460;185;1737407;-64
2023/10/26 10:17:11;;;;;;;6.40;3.50;;;;;;;;;;755495;185;921240;-68
2023/10/26 10:19:39;;;;;;;7.30;3.50;;;;;;;;;;748626;184;919175;-68
2023/10/26 10:22:04;;;;;;;5.23;3.53;;;;;;;;;;767109;180;918678;-68
2023/10/26 10:24:34;;;;;;;6.07;3.20;;;;;;;;;;776272;180;920887;-68
2023/10/26 10:27:06;;;;;;;4.40;3.60;;;;;;;;;;762604;184;915429;-69
2023/10/26 10:29:32;;;;;;;6.43;3.60;;;;;;;;;;737886;185;915534;-65
2023/10/26 10:31:58;;;;;;;8.10;3.77;;;;;;;;;;765789;182;917628;-68
2023/10/26 10:34:25;;;;;;;6.20;3.07;;;;;;;;;;767077;183;918853;-68
2023/10/26 10:36:55;;;;;;;3.93;2.70;;;;;;;;;;766031;182;916350;-67
2023/10/26 10:39:22;;;;;;;5.97;3.47;;;;;;;;;;767399;182;916105;-68
2023/10/26 10:41:47;;;;;;;3.57;2.77;;;;;;;;;;752357;185;919012;-64
2023/10/26 10:44:13;;;;;;;5.77;2.70;;;;;;;;;;760218;184;816470;-64
2023/10/26 10:46:39;;;;;;;3.87;2.50;;;;;;;;;;769231;178;920510;-67
2023/10/26 10:49:05;;;;;;;4.23;2.97;;;;;;;;;;768735;181;918572;-67
2023/10/26 10:51:32;;;;;;;4.60;3.30;;;;;;;;;;773172;181;820900;-64
2023/10/26 10:53:58;;;;;;;4.63;2.20;;;;;;;;;;768995;179;917955;-63
2023/10/26 10:56:24;;;;;;;4.27;2.43;;;;;;;;;;768419;180;912698;-63
2023/10/26 10:58:52;;;;;;;3.20;1.50;;;;;;;;;;763385;183;819243;-64
2023/10/26 11:01:17;;;;;;;2.83;1.50;;;;;;;;;;758586;183;917831;-64
2023/10/26 11:03:43;;;;;;;3.30;1.63;;;;;;;;;;760052;183;919222;-68
2023/10/26 11:06:09;;;;;;;3.00;1.60;;;;;;;;;;747168;184;919384;-64
2023/10/26 11:08:38;;;;;;;2.80;1.40;;;;;;;;;;774293;180;817840;-64
2023/10/26 11:11:03;;;;;;;3.30;1.60;;;;;;;;;;754979;185;917793;-68
2023/10/26 11:13:29;;;;;;;4.10;1.80;;;;;;;;;;752176;184;924208;-68
2023/10/26 11:15:55;;;;;;;2.50;1.27;;;;;;;;;;748622;185;939219;-68
2023/10/26 11:18:21;;;;;;;2.83;1.70;;;;;;;;;;764671;183;900636;-68
2023/10/26 11:20:47;;;;;;;3.73;1.70;;;;;;;;;;766809;183;915835;-68
2023/10/26 11:23:13;;;;;;;2.80;1.80;;;;;;;;;;754304;184;918470;-64
2023/10/26 11:25:38;;;;;;;6.93;2.20;;;;;;;;;;771327;181;941738;-64
2023/10/26 11:28:04;;;;;;;2.73;1.37;;;;;;;;;;754689;181;915692;-68
2023/10/26 11:30:30;;;;;;;4.87;1.73;;;;;;;;;;767739;180;912604;-68
2023/10/26 11:32:56;;;;;;;4.77;2.23;;;;;;;;;;775042;182;912943;-63
2023/10/26 11:35:22;;;;;;;3.03;1.90;;;;;;;;;;774382;180;918933;-63
2023/10/26 11:37:49;;;;;;;4.40;1.87;;;;;;;;;;755168;184;916541;-64
2023/10/26 11:40:14;;;;;;;2.97;1.83;;;;;;;;;;762771;182;918833;-68
2023/10/26 11:42:43;;;;;;;3.90;1.93;;;;;;;;;;750648;183;922371;-68
2023/10/26 11:45:09;;;;;;;2.53;1.53;;;;;;;;;;761528;182;920177;-64
2023/10/26 11:47:41;;;;;;;3.20;1.85;;;;;;;;;;744203;185;919787;-67
2023/10/26 11:50:07;;;;;;;3.97;1.90;;;;;;;;;;759339;185;921332;-68
2023/10/26 11:52:33;;;;;;;2.50;1.50;;;;;;;;;;751128;186;925991;-64
2023/10/26 11:55:00;;;;;;;3.10;1.70;;;;;;;;;;767353;180;919929;-63
2023/10/26 11:57:25;;;;;;;3.40;1.53;;;;;;;;;;770364;180;922617;-67
2023/10/26 11:59:51;;;;;;;3.40;1.50;;;;;;;;;;779373;180;815535;-68
2023/10/26 12:02:16;;;;;;;4.80;2.03;;;;;;;;;;768931;180;942760;-68
2023/10/26 12:04:42;;;;;;;2.67;1.47;;;;;;;;;;765995;179;919738;-67
2023/10/26 12:07:08;;;;;;;3.10;1.80;;;;;;;;;;764507;184;816502;-67
2023/10/26 12:09:34;;;;;;;2.87;1.90;;;;;;;;;;743007;184;919076;-65
2023/10/26 12:12:00;;;;;;;3.10;1.70;;;;;;;;;;766498;181;920530;-64
2023/10/26 12:14:26;;;;;;;4.45;1.70;;;;;;;;;;772120;181;920957;-64
2023/10/26 12:16:52;;;;;;;2.60;1.30;;;;;;;;;;758646;183;814995;-65
2023/10/26 12:19:17;;;;;;;4.47;1.80;;;;;;;;;;765386;183;936272;-67
2023/10/26 12:21:43;;;;;;;2.87;1.63;;;;;;;;;;768697;183;919328;-64
2023/10/26 12:24:09;;;;;;;3.30;1.50;;;;;;;;;;764324;183;818979;-67
2023/10/26 12:26:35;;;;;;;3.47;1.47;;;;;;;;;;751622;184;816713;-64
2023/10/26 12:29:01;;;;;;;4.68;1.40;;;;;;;;;;760338;183;921318;-67
2023/10/26 12:31:27;;;;;;;2.53;1.17;;;;;;;;;;768257;182;918539;-64
2023/10/26 12:33:52;;;;;;;3.50;1.60;;;;;;;;;;751275;186;919007;-64
2023/10/26 12:36:18;;;;;;;2.60;1.47;;;;;;;;;;759415;180;922272;-64
2023/10/26 12:38:44;;;;;;;7.37;1.43;;;;;;;;;;761589;184;818647;-67
2023/10/26 12:41:10;;;;;;;3.00;1.33;;;;;;;;;;759740;183;914467;-64
2023/10/26 12:43:36;;;;;;;2.80;1.58;;;;;;;;;;762419;183;820291;-63
2023/10/26 12:46:02;;;;;;;3.00;1.50;;;;;;;;;;767391;181;820832;-65
2023/10/26 12:48:28;;;;;;;4.43;1.70;;;;;;;;;;766585;182;920085;-66
2023/10/26 12:50:54;;;;;;;2.73;1.37;;;;;;;;;;764077;182;923911;-67
2023/10/26 12:53:20;;;;;;;4.33;1.50;;;;;;;;;;767522;182;932227;-68
2023/10/26 12:55:46;;;;;;;4.57;1.40;;;;;;;;;;775983;180;919079;-67
2023/10/26 12:58:12;;;;;;;4.57;2.17;;;;;;;;;;763235;182;918555;-64
2023/10/26 13:00:38;;;;;;;2.20;1.10;;;;;;;;;;763835;182;918454;-67
2023/10/26 13:03:04;;;;;;;5.30;1.70;;;;;;;;;;767847;183;919334;-64
2023/10/26 13:05:29;;;;;;;2.67;1.30;;;;;;;;;;759517;182;918390;-65
2023/10/26 13:07:55;;;;;;;2.20;1.20;;;;;;;;;;764421;182;917895;-64
2023/10/26 13:10:21;;;;;;;2.73;1.30;;;;;;;;;;765312;183;918539;-65
2023/10/26 13:12:48;;;;;;;2.63;1.13;;;;;;;;;;762016;182;925911;-64
2023/10/26 13:15:14;;;;;;;2.60;1.20;;;;;;;;;;749470;185;816958;-65
2023/10/26 13:17:39;;;;;;;5.33;1.70;;;;;;;;;;765952;182;897224;-65
2023/10/26 13:20:05;;;;;;;3.03;1.27;;;;;;;;;;765332;182;912949;-67
2023/10/26 13:22:31;;;;;;;3.60;1.33;;;;;;;;;;763244;183;916080;-64
2023/10/26 13:24:57;;;;;;;3.12;1.45;;;;;;;;;;761216;181;923967;-65
2023/10/26 13:27:25;;;;;;;3.20;1.47;;;;;;;;;;767946;183;914906;-65
2023/10/26 13:29:49;;;;;;;5.83;2.03;;;;;;;;;;763891;183;1015787;-64
2023/10/26 13:32:15;;;;;;;3.17;1.53;;;;;;;;;;762690;182;923006;-67
2023/10/26 13:34:42;;;;;;;2.50;1.20;;;;;;;;;;769036;182;714315;-68
2023/10/26 13:37:09;;;;;;;2.67;1.20;;;;;;;;;;765037;183;720977;-68
2023/10/26 13:39:35;;;;;;;2.63;1.47;;;;;;;;;;763633;182;920143;-65
2023/10/26 13:42:00;;;;;;;7.70;1.37;;;;;;;;;;770090;183;815483;-65
2023/10/26 13:44:26;;;;;;;3.13;1.57;;;;;;;;;;762040;183;941924;-65
2023/10/26 13:46:52;;;;;;;2.92;1.45;;;;;;;;;;762089;182;927583;-65
2023/10/26 13:49:18;;;;;;;2.83;1.37;;;;;;;;;;761785;183;918233;-67
2023/10/26 13:51:44;;;;;;;4.13;1.33;;;;;;;;;;767313;182;917886;-68
2023/10/26 13:54:10;;;;;;;2.50;1.57;;;;;;;;;;757385;182;918876;-68
2023/10/26 13:56:36;;;;;;;2.70;1.40;;;;;;;;;;764084;182;919667;-67
2023/10/26 13:59:02;;;;;;;2.73;1.40;;;;;;;;;;766809;182;919405;-68
2023/10/26 14:01:27;;;;;;;6.53;2.03;;;;;;;;;;764433;182;936345;-67
2023/10/26 14:03:53;;;;;;;3.00;1.47;;;;;;;;;;763329;183;917239;-67
2023/10/26 14:06:19;;;;;;;8.10;1.60;;;;;;;;;;768837;182;917493;-65
2023/10/26 14:08:45;;;;;;;3.13;1.73;;;;;;;;;;764417;182;816377;-64
2023/10/26 14:11:11;;;;;;;3.23;1.87;;;;;;;;;;762923;183;816590;-66
2023/10/26 14:13:37;;;;;;;2.90;1.40;;;;;;;;;;762456;183;918805;-65
2023/10/26 14:16:03;;;;;;;8.32;1.62;;;;;;;;;;754424;186;918708;-67
2023/10/26 14:18:28;;;;;;;2.27;1.07;;;;;;;;;;756979;181;917483;-67
2023/10/26 14:20:54;;;;;;;4.93;1.50;;;;;;;;;;768698;181;919205;-64